sensor_id;sensor_type;location;lat;lon;timestamp;P1;durP1;ratioP1;P2;durP2;ratioP2
1725;SDS011;41776;48.260;8.928;2023-08-30T00:02:23;21.50;;;13.32;;
1725;SDS011;41776;48.260;8.928;2023-08-30T00:04:50;21.30;;;13.07;;
1725;SDS011;41776;48.260;8.928;2023-08-30T00:07:16;18.98;;;11.88;;
1725;SDS011;41776;48.260;8.928;2023-08-30T00:09:43;15.45;;;10.23;;
1725;SDS011;41776;48.260;8.928;2023-08-30T00:12:09;12.88;;;9.10;;
1725;SDS011;41776;48.260;8.928;2023-08-30T00:14:37;14.93;;;10.05;;
1725;SDS011;41776;48.260;8.928;2023-08-30T00:17:04;14.73;;;9.77;;
1725;SDS011;41776;48.260;8.928;2023-08-30T00:19:30;15.63;;;8.88;;
1725;SDS011;41776;48.260;8.928;2023-08-30T00:21:57;13.30;;;9.48;;
1725;SDS011;41776;48.260;8.928;2023-08-30T00:24:23;12.73;;;8.80;;
1725;SDS011;41776;48.260;8.928;2023-08-30T00:26:50;16.73;;;9.52;;
1725;SDS011;41776;48.260;8.928;2023-08-30T00:29:16;13.73;;;9.20;;
1725;SDS011;41776;48.260;8.928;2023-08-30T00:31:44;18.90;;;11.35;;
1725;SDS011;41776;48.260;8.928;2023-08-30T00:34:11;23.30;;;12.65;;
1725;SDS011;41776;48.260;8.928;2023-08-30T00:36:37;21.38;;;12.68;;
1725;SDS011;41776;48.260;8.928;2023-08-30T00:39:04;18.42;;;10.57;;
1725;SDS011;41776;48.260;8.928;2023-08-30T00:41:30;15.43;;;9.27;;
1725;SDS011;41776;48.260;8.928;2023-08-30T00:43:57;13.27;;;9.23;;
1725;SDS011;41776;48.260;8.928;2023-08-30T00:46:23;16.70;;;10.55;;
1725;SDS011;41776;48.260;8.928;2023-08-30T00:48:52;17.30;;;10.15;;
1725;SDS011;41776;48.260;8.928;2023-08-30T00:51:19;16.30;;;10.88;;
1725;SDS011;41776;48.260;8.928;2023-08-30T00:53:46;14.52;;;9.70;;
1725;SDS011;41776;48.260;8.928;2023-08-30T00:56:14;15.05;;;10.60;;
1725;SDS011;41776;48.260;8.928;2023-08-30T00:58:41;21.77;;;11.45;;
1725;SDS011;41776;48.260;8.928;2023-08-30T01:01:08;16.98;;;11.05;;
1725;SDS011;41776;48.260;8.928;2023-08-30T01:03:34;18.13;;;11.10;;
1725;SDS011;41776;48.260;8.928;2023-08-30T01:06:04;16.30;;;10.23;;
1725;SDS011;41776;48.260;8.928;2023-08-30T01:08:30;14.38;;;8.65;;
1725;SDS011;41776;48.260;8.928;2023-08-30T01:10:59;15.02;;;9.52;;
1725;SDS011;41776;48.260;8.928;2023-08-30T01:13:32;15.73;;;10.00;;
1725;SDS011;41776;48.260;8.928;2023-08-30T01:16:03;12.13;;;8.40;;
1725;SDS011;41776;48.260;8.928;2023-08-30T01:18:31;11.10;;;8.07;;
1725;SDS011;41776;48.260;8.928;2023-08-30T01:21:00;10.65;;;7.03;;
1725;SDS011;41776;48.260;8.928;2023-08-30T01:23:33;10.95;;;7.30;;
1725;SDS011;41776;48.260;8.928;2023-08-30T01:26:08;8.53;;;6.10;;
1725;SDS011;41776;48.260;8.928;2023-08-30T01:28:40;9.35;;;6.28;;
1725;SDS011;41776;48.260;8.928;2023-08-30T01:31:08;10.10;;;7.00;;
1725;SDS011;41776;48.260;8.928;2023-08-30T01:33:35;11.77;;;7.97;;
1725;SDS011;41776;48.260;8.928;2023-08-30T01:36:04;10.70;;;7.07;;
1725;SDS011;41776;48.260;8.928;2023-08-30T01:38:32;10.13;;;6.97;;
1725;SDS011;41776;48.260;8.928;2023-08-30T01:40:59;11.60;;;7.73;;
1725;SDS011;41776;48.260;8.928;2023-08-30T01:43:27;14.07;;;8.40;;
1725;SDS011;41776;48.260;8.928;2023-08-30T01:45:57;13.30;;;8.13;;
1725;SDS011;41776;48.260;8.928;2023-08-30T01:48:25;13.87;;;9.13;;
1725;SDS011;41776;48.260;8.928;2023-08-30T01:50:54;15.37;;;9.60;;
1725;SDS011;41776;48.260;8.928;2023-08-30T01:53:23;17.07;;;10.33;;
1725;SDS011;41776;48.260;8.928;2023-08-30T01:55:51;17.27;;;10.10;;
1725;SDS011;41776;48.260;8.928;2023-08-30T01:58:18;15.90;;;9.93;;
1725;SDS011;41776;48.260;8.928;2023-08-30T02:00:44;23.37;;;10.07;;
1725;SDS011;41776;48.260;8.928;2023-08-30T02:03:13;20.13;;;10.57;;
1725;SDS011;41776;48.260;8.928;2023-08-30T02:05:43;17.83;;;11.20;;
1725;SDS011;41776;48.260;8.928;2023-08-30T02:08:18;19.97;;;11.20;;
1725;SDS011;41776;48.260;8.928;2023-08-30T02:10:48;15.50;;;10.37;;
1725;SDS011;41776;48.260;8.928;2023-08-30T02:13:21;12.67;;;8.87;;
1725;SDS011;41776;48.260;8.928;2023-08-30T02:15:52;15.07;;;8.63;;
1725;SDS011;41776;48.260;8.928;2023-08-30T02:18:23;14.87;;;8.60;;
1725;SDS011;41776;48.260;8.928;2023-08-30T02:20:50;12.00;;;7.67;;
1725;SDS011;41776;48.260;8.928;2023-08-30T02:23:16;11.43;;;7.40;;
1725;SDS011;41776;48.260;8.928;2023-08-30T02:25:43;10.87;;;7.13;;
1725;SDS011;41776;48.260;8.928;2023-08-30T02:28:09;15.83;;;9.43;;
1725;SDS011;41776;48.260;8.928;2023-08-30T02:30:36;17.80;;;9.80;;
1725;SDS011;41776;48.260;8.928;2023-08-30T02:33:03;13.83;;;8.60;;
1725;SDS011;41776;48.260;8.928;2023-08-30T02:35:31;14.47;;;8.97;;
1725;SDS011;41776;48.260;8.928;2023-08-30T02:37:57;14.73;;;9.23;;
1725;SDS011;41776;48.260;8.928;2023-08-30T02:40:24;18.37;;;9.87;;
1725;SDS011;41776;48.260;8.928;2023-08-30T02:42:51;14.60;;;8.53;;
1725;SDS011;41776;48.260;8.928;2023-08-30T02:45:17;18.57;;;9.80;;
1725;SDS011;41776;48.260;8.928;2023-08-30T02:47:44;19.60;;;10.07;;
1725;SDS011;41776;48.260;8.928;2023-08-30T02:50:10;16.40;;;9.17;;
1725;SDS011;41776;48.260;8.928;2023-08-30T02:52:38;17.77;;;10.23;;
1725;SDS011;41776;48.260;8.928;2023-08-30T02:55:05;14.63;;;8.47;;
1725;SDS011;41776;48.260;8.928;2023-08-30T02:57:32;15.90;;;9.30;;
1725;SDS011;41776;48.260;8.928;2023-08-30T02:59:59;17.93;;;10.50;;
1725;SDS011;41776;48.260;8.928;2023-08-30T03:02:25;17.97;;;10.53;;
1725;SDS011;41776;48.260;8.928;2023-08-30T03:04:51;22.73;;;11.37;;
1725;SDS011;41776;48.260;8.928;2023-08-30T03:07:18;14.97;;;8.77;;
1725;SDS011;41776;48.260;8.928;2023-08-30T03:09:46;13.03;;;8.40;;
1725;SDS011;41776;48.260;8.928;2023-08-30T03:12:17;15.90;;;9.87;;
1725;SDS011;41776;48.260;8.928;2023-08-30T03:14:44;11.90;;;8.07;;
1725;SDS011;41776;48.260;8.928;2023-08-30T03:17:10;13.97;;;8.17;;
1725;SDS011;41776;48.260;8.928;2023-08-30T03:19:37;18.03;;;10.47;;
1725;SDS011;41776;48.260;8.928;2023-08-30T03:22:03;20.07;;;11.13;;
1725;SDS011;41776;48.260;8.928;2023-08-30T03:24:30;16.27;;;8.67;;
1725;SDS011;41776;48.260;8.928;2023-08-30T03:26:58;12.90;;;8.07;;
1725;SDS011;41776;48.260;8.928;2023-08-30T03:29:25;11.67;;;7.27;;
1725;SDS011;41776;48.260;8.928;2023-08-30T03:31:52;11.50;;;6.90;;
1725;SDS011;41776;48.260;8.928;2023-08-30T03:34:18;13.80;;;7.73;;
1725;SDS011;41776;48.260;8.928;2023-08-30T03:36:45;13.43;;;7.23;;
1725;SDS011;41776;48.260;8.928;2023-08-30T03:39:15;11.23;;;7.17;;
1725;SDS011;41776;48.260;8.928;2023-08-30T03:41:42;9.47;;;6.70;;
1725;SDS011;41776;48.260;8.928;2023-08-30T03:44:12;12.13;;;6.90;;
1725;SDS011;41776;48.260;8.928;2023-08-30T03:46:38;12.50;;;7.73;;
1725;SDS011;41776;48.260;8.928;2023-08-30T03:49:04;11.33;;;6.60;;
1725;SDS011;41776;48.260;8.928;2023-08-30T03:51:31;9.63;;;6.63;;
1725;SDS011;41776;48.260;8.928;2023-08-30T03:53:57;11.13;;;6.73;;
1725;SDS011;41776;48.260;8.928;2023-08-30T03:56:24;14.00;;;8.27;;
1725;SDS011;41776;48.260;8.928;2023-08-30T03:58:50;10.53;;;6.60;;
1725;SDS011;41776;48.260;8.928;2023-08-30T04:01:19;12.97;;;7.87;;
1725;SDS011;41776;48.260;8.928;2023-08-30T04:03:45;12.00;;;7.47;;
1725;SDS011;41776;48.260;8.928;2023-08-30T04:06:12;19.00;;;9.77;;
1725;SDS011;41776;48.260;8.928;2023-08-30T04:08:38;17.40;;;9.83;;
1725;SDS011;41776;48.260;8.928;2023-08-30T04:11:05;19.10;;;9.97;;
1725;SDS011;41776;48.260;8.928;2023-08-30T04:13:31;18.67;;;10.40;;
1725;SDS011;41776;48.260;8.928;2023-08-30T04:16:00;15.10;;;8.77;;
1725;SDS011;41776;48.260;8.928;2023-08-30T04:18:28;11.80;;;6.67;;
1725;SDS011;41776;48.260;8.928;2023-08-30T04:20:54;10.57;;;6.73;;
1725;SDS011;41776;48.260;8.928;2023-08-30T04:23:24;11.03;;;6.87;;
1725;SDS011;41776;48.260;8.928;2023-08-30T04:25:52;16.73;;;8.97;;
1725;SDS011;41776;48.260;8.928;2023-08-30T04:28:18;16.30;;;9.17;;
1725;SDS011;41776;48.260;8.928;2023-08-30T04:30:45;15.57;;;8.67;;
1725;SDS011;41776;48.260;8.928;2023-08-30T04:33:11;21.73;;;10.27;;
1725;SDS011;41776;48.260;8.928;2023-08-30T04:35:39;20.67;;;9.80;;
1725;SDS011;41776;48.260;8.928;2023-08-30T04:38:05;16.37;;;9.67;;
1725;SDS011;41776;48.260;8.928;2023-08-30T04:40:32;14.53;;;8.50;;
1725;SDS011;41776;48.260;8.928;2023-08-30T04:42:59;16.57;;;9.50;;
1725;SDS011;41776;48.260;8.928;2023-08-30T04:45:25;19.30;;;10.50;;
1725;SDS011;41776;48.260;8.928;2023-08-30T04:47:52;14.87;;;8.43;;
1725;SDS011;41776;48.260;8.928;2023-08-30T04:50:19;15.03;;;9.03;;
1725;SDS011;41776;48.260;8.928;2023-08-30T04:52:47;15.07;;;8.67;;
1725;SDS011;41776;48.260;8.928;2023-08-30T04:55:14;13.00;;;8.40;;
1725;SDS011;41776;48.260;8.928;2023-08-30T04:57:40;11.05;;;7.65;;
1725;SDS011;41776;48.260;8.928;2023-08-30T05:00:10;12.35;;;7.28;;
1725;SDS011;41776;48.260;8.928;2023-08-30T05:02:37;12.50;;;7.00;;
1725;SDS011;41776;48.260;8.928;2023-08-30T05:05:04;14.10;;;8.07;;
1725;SDS011;41776;48.260;8.928;2023-08-30T05:07:31;13.93;;;8.63;;
1725;SDS011;41776;48.260;8.928;2023-08-30T05:09:58;14.27;;;8.43;;
1725;SDS011;41776;48.260;8.928;2023-08-30T05:12:25;12.45;;;8.02;;
1725;SDS011;41776;48.260;8.928;2023-08-30T05:14:51;17.40;;;8.20;;
1725;SDS011;41776;48.260;8.928;2023-08-30T05:17:18;14.00;;;8.53;;
1725;SDS011;41776;48.260;8.928;2023-08-30T05:19:44;14.13;;;8.07;;
1725;SDS011;41776;48.260;8.928;2023-08-30T05:22:11;12.48;;;7.72;;
1725;SDS011;41776;48.260;8.928;2023-08-30T05:24:38;12.63;;;8.00;;
1725;SDS011;41776;48.260;8.928;2023-08-30T05:27:06;11.50;;;7.72;;
1725;SDS011;41776;48.260;8.928;2023-08-30T05:29:32;15.18;;;8.95;;
1725;SDS011;41776;48.260;8.928;2023-08-30T05:31:59;14.32;;;7.97;;
1725;SDS011;41776;48.260;8.928;2023-08-30T05:34:25;12.13;;;6.87;;
1725;SDS011;41776;48.260;8.928;2023-08-30T05:36:53;12.35;;;8.13;;
1725;SDS011;41776;48.260;8.928;2023-08-30T05:39:19;13.93;;;7.53;;
1725;SDS011;41776;48.260;8.928;2023-08-30T05:41:46;12.75;;;7.80;;
1725;SDS011;41776;48.260;8.928;2023-08-30T05:44:14;13.52;;;8.68;;
1725;SDS011;41776;48.260;8.928;2023-08-30T05:46:40;17.58;;;8.48;;
1725;SDS011;41776;48.260;8.928;2023-08-30T05:49:07;16.25;;;8.50;;
1725;SDS011;41776;48.260;8.928;2023-08-30T05:51:34;12.75;;;8.02;;
1725;SDS011;41776;48.260;8.928;2023-08-30T05:54:00;14.02;;;8.38;;
1725;SDS011;41776;48.260;8.928;2023-08-30T05:56:27;12.90;;;8.20;;
1725;SDS011;41776;48.260;8.928;2023-08-30T05:58:53;12.63;;;7.30;;
1725;SDS011;41776;48.260;8.928;2023-08-30T06:01:21;11.45;;;7.63;;
1725;SDS011;41776;48.260;8.928;2023-08-30T06:03:48;15.77;;;8.35;;
1725;SDS011;41776;48.260;8.928;2023-08-30T06:06:15;9.95;;;6.45;;
1725;SDS011;41776;48.260;8.928;2023-08-30T06:08:42;14.70;;;7.35;;
1725;SDS011;41776;48.260;8.928;2023-08-30T06:11:09;9.55;;;6.47;;
1725;SDS011;41776;48.260;8.928;2023-08-30T06:13:35;9.63;;;6.50;;
1725;SDS011;41776;48.260;8.928;2023-08-30T06:16:02;9.88;;;7.05;;
1725;SDS011;41776;48.260;8.928;2023-08-30T06:18:30;10.07;;;6.80;;
1725;SDS011;41776;48.260;8.928;2023-08-30T06:20:57;9.27;;;6.47;;
1725;SDS011;41776;48.260;8.928;2023-08-30T06:23:24;9.00;;;6.32;;
1725;SDS011;41776;48.260;8.928;2023-08-30T06:25:54;8.63;;;5.75;;
1725;SDS011;41776;48.260;8.928;2023-08-30T06:28:21;9.80;;;6.85;;
1725;SDS011;41776;48.260;8.928;2023-08-30T06:30:47;8.73;;;6.38;;
1725;SDS011;41776;48.260;8.928;2023-08-30T06:33:14;8.40;;;5.90;;
1725;SDS011;41776;48.260;8.928;2023-08-30T06:35:42;8.10;;;6.03;;
1725;SDS011;41776;48.260;8.928;2023-08-30T06:38:08;8.68;;;6.13;;
1725;SDS011;41776;48.260;8.928;2023-08-30T06:40:35;11.00;;;7.03;;
1725;SDS011;41776;48.260;8.928;2023-08-30T06:43:02;9.35;;;6.13;;
1725;SDS011;41776;48.260;8.928;2023-08-30T06:45:29;7.90;;;5.53;;
1725;SDS011;41776;48.260;8.928;2023-08-30T06:47:56;7.25;;;5.30;;
1725;SDS011;41776;48.260;8.928;2023-08-30T06:50:22;7.95;;;5.65;;
1725;SDS011;41776;48.260;8.928;2023-08-30T06:52:50;7.40;;;5.80;;
1725;SDS011;41776;48.260;8.928;2023-08-30T06:55:17;8.90;;;5.85;;
1725;SDS011;41776;48.260;8.928;2023-08-30T06:57:47;8.45;;;6.50;;
1725;SDS011;41776;48.260;8.928;2023-08-30T07:00:15;7.20;;;5.00;;
1725;SDS011;41776;48.260;8.928;2023-08-30T07:02:42;6.07;;;4.85;;
1725;SDS011;41776;48.260;8.928;2023-08-30T07:05:10;6.68;;;5.22;;
1725;SDS011;41776;48.260;8.928;2023-08-30T07:07:37;6.70;;;5.43;;
1725;SDS011;41776;48.260;8.928;2023-08-30T07:10:06;5.80;;;4.63;;
1725;SDS011;41776;48.260;8.928;2023-08-30T07:12:33;5.43;;;4.38;;
1725;SDS011;41776;48.260;8.928;2023-08-30T07:15:00;5.13;;;3.75;;
1725;SDS011;41776;48.260;8.928;2023-08-30T07:17:28;6.15;;;4.13;;
1725;SDS011;41776;48.260;8.928;2023-08-30T07:19:54;6.15;;;4.40;;
1725;SDS011;41776;48.260;8.928;2023-08-30T07:22:21;5.53;;;4.28;;
1725;SDS011;41776;48.260;8.928;2023-08-30T07:24:47;6.72;;;4.20;;
1725;SDS011;41776;48.260;8.928;2023-08-30T07:27:15;6.20;;;3.88;;
1725;SDS011;41776;48.260;8.928;2023-08-30T07:29:42;5.72;;;3.75;;
1725;SDS011;41776;48.260;8.928;2023-08-30T07:32:08;4.70;;;3.35;;
1725;SDS011;41776;48.260;8.928;2023-08-30T07:34:35;3.78;;;3.03;;
1725;SDS011;41776;48.260;8.928;2023-08-30T07:37:02;3.15;;;2.50;;
1725;SDS011;41776;48.260;8.928;2023-08-30T07:39:28;3.17;;;2.53;;
1725;SDS011;41776;48.260;8.928;2023-08-30T07:41:55;2.35;;;2.15;;
1725;SDS011;41776;48.260;8.928;2023-08-30T07:44:24;2.75;;;2.20;;
1725;SDS011;41776;48.260;8.928;2023-08-30T07:46:50;2.28;;;2.00;;
1725;SDS011;41776;48.260;8.928;2023-08-30T07:49:18;1.55;;;1.45;;
1725;SDS011;41776;48.260;8.928;2023-08-30T07:51:44;2.55;;;1.70;;
1725;SDS011;41776;48.260;8.928;2023-08-30T07:54:11;1.50;;;1.40;;
1725;SDS011;41776;48.260;8.928;2023-08-30T07:56:38;1.83;;;1.40;;
1725;SDS011;41776;48.260;8.928;2023-08-30T07:59:04;1.42;;;1.33;;
1725;SDS011;41776;48.260;8.928;2023-08-30T08:01:32;1.30;;;1.10;;
1725;SDS011;41776;48.260;8.928;2023-08-30T08:03:58;2.03;;;1.20;;
1725;SDS011;41776;48.260;8.928;2023-08-30T08:06:25;1.15;;;0.90;;
1725;SDS011;41776;48.260;8.928;2023-08-30T08:08:52;2.22;;;1.25;;
1725;SDS011;41776;48.260;8.928;2023-08-30T08:11:18;4.15;;;1.27;;
1725;SDS011;41776;48.260;8.928;2023-08-30T08:13:45;1.42;;;1.20;;
1725;SDS011;41776;48.260;8.928;2023-08-30T08:16:11;3.15;;;1.10;;
1725;SDS011;41776;48.260;8.928;2023-08-30T08:18:39;1.77;;;1.00;;
1725;SDS011;41776;48.260;8.928;2023-08-30T08:21:06;1.80;;;1.30;;
1725;SDS011;41776;48.260;8.928;2023-08-30T08:23:32;2.08;;;1.27;;
1725;SDS011;41776;48.260;8.928;2023-08-30T08:25:59;2.95;;;1.40;;
1725;SDS011;41776;48.260;8.928;2023-08-30T08:28:26;3.88;;;1.20;;
1725;SDS011;41776;48.260;8.928;2023-08-30T08:30:52;3.58;;;1.40;;
1725;SDS011;41776;48.260;8.928;2023-08-30T08:33:19;1.98;;;1.10;;
1725;SDS011;41776;48.260;8.928;2023-08-30T08:35:49;1.63;;;1.27;;
1725;SDS011;41776;48.260;8.928;2023-08-30T08:38:16;1.77;;;1.15;;
1725;SDS011;41776;48.260;8.928;2023-08-30T08:40:42;3.38;;;1.40;;
1725;SDS011;41776;48.260;8.928;2023-08-30T08:43:09;2.90;;;1.50;;
1725;SDS011;41776;48.260;8.928;2023-08-30T08:45:37;5.95;;;1.35;;
1725;SDS011;41776;48.260;8.928;2023-08-30T08:48:03;2.42;;;1.40;;
1725;SDS011;41776;48.260;8.928;2023-08-30T08:50:30;1.80;;;1.40;;
1725;SDS011;41776;48.260;8.928;2023-08-30T08:52:59;1.73;;;1.52;;
1725;SDS011;41776;48.260;8.928;2023-08-30T08:55:27;1.58;;;1.42;;
1725;SDS011;41776;48.260;8.928;2023-08-30T08:57:56;2.33;;;1.52;;
1725;SDS011;41776;48.260;8.928;2023-08-30T09:00:23;1.88;;;1.40;;
1725;SDS011;41776;48.260;8.928;2023-08-30T09:02:51;3.78;;;1.77;;
1725;SDS011;41776;48.260;8.928;2023-08-30T09:05:19;1.30;;;1.20;;
1725;SDS011;41776;48.260;8.928;2023-08-30T09:07:46;2.72;;;1.58;;
1725;SDS011;41776;48.260;8.928;2023-08-30T09:10:14;2.17;;;1.67;;
1725;SDS011;41776;48.260;8.928;2023-08-30T09:12:41;2.22;;;1.30;;
1725;SDS011;41776;48.260;8.928;2023-08-30T09:15:08;2.28;;;1.60;;
1725;SDS011;41776;48.260;8.928;2023-08-30T09:17:35;2.45;;;1.70;;
1725;SDS011;41776;48.260;8.928;2023-08-30T09:20:05;2.50;;;1.80;;
1725;SDS011;41776;48.260;8.928;2023-08-30T09:22:36;2.13;;;1.52;;
1725;SDS011;41776;48.260;8.928;2023-08-30T09:25:03;2.38;;;1.70;;
1725;SDS011;41776;48.260;8.928;2023-08-30T09:27:35;1.30;;;1.20;;
1725;SDS011;41776;48.260;8.928;2023-08-30T09:30:04;3.33;;;1.60;;
1725;SDS011;41776;48.260;8.928;2023-08-30T09:32:37;2.92;;;2.00;;
1725;SDS011;41776;48.260;8.928;2023-08-30T09:35:05;2.58;;;1.80;;
1725;SDS011;41776;48.260;8.928;2023-08-30T09:37:32;3.92;;;1.95;;
1725;SDS011;41776;48.260;8.928;2023-08-30T09:39:58;2.63;;;1.60;;
1725;SDS011;41776;48.260;8.928;2023-08-30T09:42:25;2.30;;;1.80;;
1725;SDS011;41776;48.260;8.928;2023-08-30T09:44:53;3.55;;;1.73;;
1725;SDS011;41776;48.260;8.928;2023-08-30T09:47:19;2.25;;;1.60;;
1725;SDS011;41776;48.260;8.928;2023-08-30T09:49:46;2.65;;;1.38;;
1725;SDS011;41776;48.260;8.928;2023-08-30T09:52:14;4.07;;;1.60;;
1725;SDS011;41776;48.260;8.928;2023-08-30T09:54:42;2.35;;;1.67;;
1725;SDS011;41776;48.260;8.928;2023-08-30T09:57:09;4.40;;;1.60;;
1725;SDS011;41776;48.260;8.928;2023-08-30T09:59:36;1.65;;;1.20;;
1725;SDS011;41776;48.260;8.928;2023-08-30T10:02:06;3.35;;;1.50;;
1725;SDS011;41776;48.260;8.928;2023-08-30T10:04:34;1.42;;;1.30;;
1725;SDS011;41776;48.260;8.928;2023-08-30T10:07:04;3.45;;;1.60;;
1725;SDS011;41776;48.260;8.928;2023-08-30T10:09:33;2.13;;;1.20;;
1725;SDS011;41776;48.260;8.928;2023-08-30T10:11:59;1.88;;;1.48;;
1725;SDS011;41776;48.260;8.928;2023-08-30T10:14:28;2.22;;;1.60;;
1725;SDS011;41776;48.260;8.928;2023-08-30T10:16:58;2.35;;;1.40;;
1725;SDS011;41776;48.260;8.928;2023-08-30T10:19:29;2.65;;;1.38;;
1725;SDS011;41776;48.260;8.928;2023-08-30T10:22:00;2.00;;;1.60;;
1725;SDS011;41776;48.260;8.928;2023-08-30T10:24:29;1.67;;;1.13;;
1725;SDS011;41776;48.260;8.928;2023-08-30T10:26:59;3.78;;;1.60;;
1725;SDS011;41776;48.260;8.928;2023-08-30T10:29:27;1.67;;;1.58;;
1725;SDS011;41776;48.260;8.928;2023-08-30T10:31:55;2.65;;;1.50;;
1725;SDS011;41776;48.260;8.928;2023-08-30T10:34:22;2.13;;;1.23;;
1725;SDS011;41776;48.260;8.928;2023-08-30T10:36:58;1.83;;;1.30;;
1725;SDS011;41776;48.260;8.928;2023-08-30T10:39:32;2.03;;;1.38;;
1725;SDS011;41776;48.260;8.928;2023-08-30T10:42:00;2.10;;;1.40;;
1725;SDS011;41776;48.260;8.928;2023-08-30T10:44:27;2.25;;;1.40;;
1725;SDS011;41776;48.260;8.928;2023-08-30T10:46:53;1.73;;;1.13;;
1725;SDS011;41776;48.260;8.928;2023-08-30T10:49:21;1.52;;;1.30;;
1725;SDS011;41776;48.260;8.928;2023-08-30T10:51:55;1.98;;;1.40;;
1725;SDS011;41776;48.260;8.928;2023-08-30T10:54:26;3.13;;;1.60;;
1725;SDS011;41776;48.260;8.928;2023-08-30T10:57:03;2.05;;;1.30;;
1725;SDS011;41776;48.260;8.928;2023-08-30T10:59:29;4.57;;;1.90;;
1725;SDS011;41776;48.260;8.928;2023-08-30T11:01:56;2.60;;;1.52;;
1725;SDS011;41776;48.260;8.928;2023-08-30T11:04:28;1.88;;;1.40;;
1725;SDS011;41776;48.260;8.928;2023-08-30T11:06:55;3.40;;;1.80;;
1725;SDS011;41776;48.260;8.928;2023-08-30T11:09:24;2.38;;;1.45;;
1725;SDS011;41776;48.260;8.928;2023-08-30T11:11:51;2.40;;;1.50;;
1725;SDS011;41776;48.260;8.928;2023-08-30T11:14:18;1.80;;;1.40;;
1725;SDS011;41776;48.260;8.928;2023-08-30T11:16:45;1.58;;;1.35;;
1725;SDS011;41776;48.260;8.928;2023-08-30T11:19:11;2.13;;;1.50;;
1725;SDS011;41776;48.260;8.928;2023-08-30T11:21:38;2.42;;;1.45;;
1725;SDS011;41776;48.260;8.928;2023-08-30T11:24:06;2.45;;;1.40;;
1725;SDS011;41776;48.260;8.928;2023-08-30T11:26:34;1.60;;;1.10;;
1725;SDS011;41776;48.260;8.928;2023-08-30T11:29:05;1.40;;;1.25;;
1725;SDS011;41776;48.260;8.928;2023-08-30T11:31:31;1.38;;;1.20;;
1725;SDS011;41776;48.260;8.928;2023-08-30T11:33:58;4.70;;;1.73;;
1725;SDS011;41776;48.260;8.928;2023-08-30T11:36:26;6.20;;;1.50;;
1725;SDS011;41776;48.260;8.928;2023-08-30T11:38:54;4.50;;;1.73;;
1725;SDS011;41776;48.260;8.928;2023-08-30T11:41:21;2.55;;;1.77;;
1725;SDS011;41776;48.260;8.928;2023-08-30T11:43:50;5.68;;;1.42;;
1725;SDS011;41776;48.260;8.928;2023-08-30T11:46:17;2.42;;;1.50;;
1725;SDS011;41776;48.260;8.928;2023-08-30T11:48:44;5.30;;;1.40;;
1725;SDS011;41776;48.260;8.928;2023-08-30T11:51:12;1.45;;;1.20;;
1725;SDS011;41776;48.260;8.928;2023-08-30T11:53:39;1.48;;;1.20;;
1725;SDS011;41776;48.260;8.928;2023-08-30T11:56:06;3.10;;;1.35;;
1725;SDS011;41776;48.260;8.928;2023-08-30T11:58:34;2.42;;;1.65;;
1725;SDS011;41776;48.260;8.928;2023-08-30T12:01:03;2.78;;;1.77;;
1725;SDS011;41776;48.260;8.928;2023-08-30T12:03:30;2.70;;;1.80;;
1725;SDS011;41776;48.260;8.928;2023-08-30T12:05:58;3.88;;;1.60;;
1725;SDS011;41776;48.260;8.928;2023-08-30T12:08:25;2.03;;;1.83;;
1725;SDS011;41776;48.260;8.928;2023-08-30T12:10:52;3.42;;;1.80;;
1725;SDS011;41776;48.260;8.928;2023-08-30T12:13:20;5.28;;;1.70;;
1725;SDS011;41776;48.260;8.928;2023-08-30T12:15:47;2.03;;;1.35;;
1725;SDS011;41776;48.260;8.928;2023-08-30T12:18:15;1.90;;;1.30;;
1725;SDS011;41776;48.260;8.928;2023-08-30T12:20:51;1.60;;;1.20;;
1725;SDS011;41776;48.260;8.928;2023-08-30T12:23:21;4.30;;;1.52;;
1725;SDS011;41776;48.260;8.928;2023-08-30T12:26:02;1.65;;;1.20;;
1725;SDS011;41776;48.260;8.928;2023-08-30T12:28:32;1.63;;;1.00;;
1725;SDS011;41776;48.260;8.928;2023-08-30T12:31:00;1.20;;;1.10;;
1725;SDS011;41776;48.260;8.928;2023-08-30T12:33:30;3.00;;;1.40;;
1725;SDS011;41776;48.260;8.928;2023-08-30T12:35:57;1.30;;;1.20;;
1725;SDS011;41776;48.260;8.928;2023-08-30T12:38:24;2.05;;;1.30;;
1725;SDS011;41776;48.260;8.928;2023-08-30T12:40:51;1.63;;;1.10;;
1725;SDS011;41776;48.260;8.928;2023-08-30T12:43:19;3.17;;;1.95;;
1725;SDS011;41776;48.260;8.928;2023-08-30T12:45:47;3.20;;;1.60;;
1725;SDS011;41776;48.260;8.928;2023-08-30T12:48:15;2.15;;;1.10;;
1725;SDS011;41776;48.260;8.928;2023-08-30T12:50:44;2.08;;;1.27;;
1725;SDS011;41776;48.260;8.928;2023-08-30T12:53:12;2.85;;;1.33;;
1725;SDS011;41776;48.260;8.928;2023-08-30T12:55:40;3.15;;;1.15;;
1725;SDS011;41776;48.260;8.928;2023-08-30T12:58:06;2.05;;;1.20;;
1725;SDS011;41776;48.260;8.928;2023-08-30T13:00:34;1.25;;;1.00;;
1725;SDS011;41776;48.260;8.928;2023-08-30T13:03:01;1.33;;;1.00;;
1725;SDS011;41776;48.260;8.928;2023-08-30T13:05:28;5.25;;;2.47;;
1725;SDS011;41776;48.260;8.928;2023-08-30T13:07:57;2.22;;;1.00;;
1725;SDS011;41776;48.260;8.928;2023-08-30T13:10:23;1.05;;;0.80;;
1725;SDS011;41776;48.260;8.928;2023-08-30T13:12:50;0.70;;;0.70;;
1725;SDS011;41776;48.260;8.928;2023-08-30T13:15:17;1.20;;;0.70;;
1725;SDS011;41776;48.260;8.928;2023-08-30T13:17:43;1.63;;;1.25;;
1725;SDS011;41776;48.260;8.928;2023-08-30T13:20:10;2.15;;;1.00;;
1725;SDS011;41776;48.260;8.928;2023-08-30T13:22:37;4.10;;;2.00;;
1725;SDS011;41776;48.260;8.928;2023-08-30T13:25:06;1.95;;;1.33;;
1725;SDS011;41776;48.260;8.928;2023-08-30T13:27:33;4.43;;;2.35;;
1725;SDS011;41776;48.260;8.928;2023-08-30T13:30:00;2.95;;;1.98;;
1725;SDS011;41776;48.260;8.928;2023-08-30T13:32:27;1.55;;;1.30;;
1725;SDS011;41776;48.260;8.928;2023-08-30T13:34:54;2.17;;;1.40;;
1725;SDS011;41776;48.260;8.928;2023-08-30T13:37:20;4.20;;;2.58;;
1725;SDS011;41776;48.260;8.928;2023-08-30T13:39:48;2.85;;;1.60;;
1725;SDS011;41776;48.260;8.928;2023-08-30T13:42:16;5.57;;;1.85;;
1725;SDS011;41776;48.260;8.928;2023-08-30T13:44:42;1.65;;;1.30;;
1725;SDS011;41776;48.260;8.928;2023-08-30T13:47:10;1.40;;;1.00;;
1725;SDS011;41776;48.260;8.928;2023-08-30T13:49:40;1.25;;;1.08;;
1725;SDS011;41776;48.260;8.928;2023-08-30T13:52:07;3.10;;;1.40;;
1725;SDS011;41776;48.260;8.928;2023-08-30T13:54:33;1.27;;;1.10;;
1725;SDS011;41776;48.260;8.928;2023-08-30T13:57:00;1.15;;;1.00;;
1725;SDS011;41776;48.260;8.928;2023-08-30T13:59:28;2.63;;;1.10;;
1725;SDS011;41776;48.260;8.928;2023-08-30T14:01:55;1.58;;;1.10;;
1725;SDS011;41776;48.260;8.928;2023-08-30T14:04:23;2.42;;;1.08;;
1725;SDS011;41776;48.260;8.928;2023-08-30T14:06:50;0.88;;;0.88;;
1725;SDS011;41776;48.260;8.928;2023-08-30T14:09:17;0.90;;;0.80;;
1725;SDS011;41776;48.260;8.928;2023-08-30T14:11:44;2.40;;;1.27;;
1725;SDS011;41776;48.260;8.928;2023-08-30T14:14:10;1.38;;;1.10;;
1725;SDS011;41776;48.260;8.928;2023-08-30T14:16:38;1.75;;;0.68;;
1725;SDS011;41776;48.260;8.928;2023-08-30T14:19:05;1.70;;;1.02;;
1725;SDS011;41776;48.260;8.928;2023-08-30T14:21:31;3.45;;;1.75;;
1725;SDS011;41776;48.260;8.928;2023-08-30T14:23:58;3.55;;;1.83;;
1725;SDS011;41776;48.260;8.928;2023-08-30T14:26:25;1.35;;;1.00;;
1725;SDS011;41776;48.260;8.928;2023-08-30T14:28:52;1.40;;;0.80;;
1725;SDS011;41776;48.260;8.928;2023-08-30T14:31:19;1.40;;;0.98;;
1725;SDS011;41776;48.260;8.928;2023-08-30T14:33:46;3.38;;;1.30;;
1725;SDS011;41776;48.260;8.928;2023-08-30T14:36:13;3.55;;;1.50;;
1725;SDS011;41776;48.260;8.928;2023-08-30T14:38:40;2.88;;;1.48;;
1725;SDS011;41776;48.260;8.928;2023-08-30T14:41:07;1.70;;;0.98;;
1725;SDS011;41776;48.260;8.928;2023-08-30T14:43:34;1.45;;;0.90;;
1725;SDS011;41776;48.260;8.928;2023-08-30T14:46:00;1.42;;;1.20;;
1725;SDS011;41776;48.260;8.928;2023-08-30T14:48:27;1.67;;;1.33;;
1725;SDS011;41776;48.260;8.928;2023-08-30T14:50:56;1.92;;;0.90;;
1725;SDS011;41776;48.260;8.928;2023-08-30T14:53:23;1.80;;;1.20;;
1725;SDS011;41776;48.260;8.928;2023-08-30T14:55:50;1.23;;;1.13;;
1725;SDS011;41776;48.260;8.928;2023-08-30T14:58:16;2.63;;;1.20;;